首页
METAR-TAF:

METAR-TAF

机场 :

Griffiss_Air_Force_Base

羅馬, 紐約州, 美国

纬度: 43-14N, 经度: 075-24W, 海拔: 154米

当前天气观测

该预报发布于24分钟前的00:53 UTC
风速4节,风向西北
温度 7°C
湿度 36%
气压 1016 hPa
能見度: 16.1公里
少量云层高于11000英尺

METAR: KRME 070053Z 32004KT 10SM FEW110 07/M07 A3000 RMK AO2 SLP162 T00721072

时间: 21:17 (01:17 UTC)

预报

该预报发布于1小时和57分钟前的23:20 UTC
预报有效从07日的 00点(UTC)到 07日的 24点(UTC)
风速6节,风向西
能見度: 10公里
多云层高于20000英尺
从 07日的 0900点(UTC)
风速3节,风向多变
能見度: 10公里
散云层高于20000英尺
从 07日的 2300点(UTC)
风速4节,风向多变
能見度: 10公里
多云层高于12000英尺

TAF: KRME 062320Z 0700/0724 28006KT P6SM BKN200 FM070900 VRB03KT P6SM SCT200 FM072300 VRB04KT P6SM BKN120

超过4000个机场的气象观测和天气预报(METAR&TAF报告)。

可查询的气象台以黄色和红色小点在地图上表示。

将鼠标移到小点上方,可查看气象台名称。

然后点击查看天气观测和预报。

如需切换地图:点击带黑十字的绿色按钮放大地图;点击带横线的绿色按钮缩小地图;或者点击绿色箭头查看邻近地区的地图。


METAR-TAF: